Time;durP1;ratioP1;P1;durP2;ratioP2;P2;SDS_P1;SDS_P2;PMS_P1;PMS_P2;Temp;Humidity;BMP_temperature;BMP_pressure;BME280_temperature;BME280_humidity;BME280_pressure;Samples;Min_cycle;Max_cycle;Signal;HPM_P1;HPM_P2
2022/02/26 00:00:38;;;;;;;13.98;4.43;;;6.10;99.90;;;;;;5052740;28;20239;-67
2022/02/26 00:03:07;;;;;;;18.90;4.63;;;6.10;99.90;;;;;;5052443;28;20637;-70
2022/02/26 00:05:34;;;;;;;21.90;5.65;;;6.20;99.90;;;;;;5053144;28;20648;-71
2022/02/26 00:08:01;;;;;;;16.05;4.20;;;6.20;99.90;;;;;;5052276;28;20251;-68
2022/02/26 00:10:28;;;;;;;25.00;5.32;;;6.10;99.90;;;;;;5051959;28;20231;-68
2022/02/26 00:12:55;;;;;;;20.13;5.00;;;6.20;99.90;;;;;;5050486;28;20267;-66
2022/02/26 00:15:23;;;;;;;21.77;5.20;;;6.20;99.90;;;;;;5052929;28;20259;-65
2022/02/26 00:17:52;;;;;;;10.45;5.15;;;6.10;99.90;;;;;;5052498;28;20208;-69
2022/02/26 00:20:19;;;;;;;15.75;6.13;;;6.00;99.90;;;;;;5046499;28;20292;-68
2022/02/26 00:22:46;;;;;;;28.92;4.97;;;6.00;99.90;;;;;;5046691;28;20649;-68
2022/02/26 00:25:14;;;;;;;32.50;9.77;;;6.00;99.90;;;;;;5052807;28;20200;-67
2022/02/26 00:27:41;;;;;;;27.75;9.18;;;5.90;99.90;;;;;;5052371;28;20262;-66
2022/02/26 00:30:09;;;;;;;22.10;6.65;;;5.90;99.90;;;;;;5046796;28;20201;-68
2022/02/26 00:32:36;;;;;;;19.77;6.57;;;5.80;99.90;;;;;;5052805;28;20228;-71
2022/02/26 00:35:05;;;;;;;19.55;5.80;;;5.80;99.90;;;;;;5053086;28;20229;-67
2022/02/26 00:37:32;;;;;;;22.98;4.60;;;5.80;99.90;;;;;;5055547;28;20614;-66
2022/02/26 00:39:59;;;;;;;24.48;8.00;;;5.70;99.90;;;;;;5055928;28;20200;-67
2022/02/26 00:42:26;;;;;;;34.75;5.40;;;5.60;99.90;;;;;;5058843;28;20223;-68
2022/02/26 00:44:53;;;;;;;17.63;3.80;;;5.60;99.90;;;;;;5057683;28;20254;-67
2022/02/26 00:47:20;;;;;;;21.77;5.30;;;5.60;99.90;;;;;;5054753;28;20200;-72
2022/02/26 00:49:46;;;;;;;20.38;4.93;;;5.50;99.90;;;;;;5051970;28;20219;-69
2022/02/26 00:52:15;;;;;;;24.98;5.13;;;5.50;99.90;;;;;;5050790;28;20310;-68
2022/02/26 00:54:43;;;;;;;18.20;4.57;;;5.40;99.90;;;;;;5052109;28;20744;-66
2022/02/26 00:57:10;;;;;;;23.73;5.60;;;5.20;99.90;;;;;;5052287;28;20253;-66
2022/02/26 00:59:37;;;;;;;11.45;4.13;;;5.40;99.90;;;;;;5051503;28;20264;-69
2022/02/26 01:02:05;;;;;;;8.32;3.60;;;5.40;99.90;;;;;;5051591;28;20227;-66
2022/02/26 01:04:33;;;;;;;29.52;5.13;;;5.30;99.90;;;;;;5052076;28;20590;-67
2022/02/26 01:07:00;;;;;;;23.85;5.20;;;5.30;99.90;;;;;;5051583;28;20199;-66
2022/02/26 01:09:28;;;;;;;19.45;5.88;;;5.30;99.90;;;;;;5051563;28;20195;-70
2022/02/26 01:11:55;;;;;;;18.20;5.00;;;5.30;99.90;;;;;;5051610;28;20222;-68
2022/02/26 01:14:24;;;;;;;19.55;3.65;;;5.30;99.90;;;;;;5051600;28;20258;-67
2022/02/26 01:16:51;;;;;;;18.70;4.75;;;5.30;99.90;;;;;;5051565;28;20203;-69
2022/02/26 01:19:18;;;;;;;15.35;4.03;;;5.30;99.90;;;;;;5041935;28;20200;-69
2022/02/26 01:21:45;;;;;;;17.13;4.68;;;5.30;99.90;;;;;;5051037;28;20211;-66
2022/02/26 01:24:13;;;;;;;24.85;4.50;;;5.30;99.90;;;;;;5051647;28;20250;-67
2022/02/26 01:26:41;;;;;;;16.05;4.68;;;5.30;99.90;;;;;;5051906;28;20692;-67
2022/02/26 01:29:09;;;;;;;12.57;5.30;;;5.30;99.90;;;;;;5051803;28;20212;-67
2022/02/26 01:31:36;;;;;;;22.30;4.43;;;5.30;99.90;;;;;;5054197;28;20219;-71
2022/02/26 01:34:03;;;;;;;23.92;4.97;;;5.20;99.90;;;;;;5055144;28;20195;-70
2022/02/26 01:36:30;;;;;;;22.83;4.65;;;5.20;99.90;;;;;;5056177;28;20218;-69
2022/02/26 01:38:59;;;;;;;14.55;3.75;;;5.30;99.90;;;;;;5056151;28;20203;-69
2022/02/26 01:41:28;;;;;;;24.50;4.40;;;5.30;99.90;;;;;;5048275;28;20231;-68
2022/02/26 01:43:58;;;;;;;19.58;4.75;;;5.30;99.90;;;;;;5050436;28;20223;-66
2022/02/26 01:46:25;;;;;;;14.55;5.55;;;5.30;99.90;;;;;;5052196;28;20265;-67
2022/02/26 01:48:52;;;;;;;16.17;5.95;;;5.20;99.90;;;;;;5051649;28;20629;-69
2022/02/26 01:51:20;;;;;;;17.17;4.53;;;5.20;99.90;;;;;;5051595;28;20216;-67
2022/02/26 01:53:47;;;;;;;16.60;4.55;;;5.10;99.90;;;;;;5051485;28;20301;-67
2022/02/26 01:56:14;;;;;;;22.83;5.15;;;5.10;99.90;;;;;;5048336;28;20562;-69
2022/02/26 01:58:41;;;;;;;23.38;4.03;;;5.10;99.90;;;;;;5052168;28;20287;-68
2022/02/26 02:01:11;;;;;;;24.48;5.07;;;5.10;99.90;;;;;;5052143;28;20700;-68
2022/02/26 02:03:41;;;;;;;26.33;5.25;;;5.00;99.90;;;;;;5053004;28;20307;-67
2022/02/26 02:06:18;;;;;;;16.02;4.07;;;5.10;99.90;;;;;;5055856;28;20645;-68
2022/02/26 02:08:46;;;;;;;20.02;4.68;;;5.10;99.90;;;;;;5055867;28;20261;-69
2022/02/26 02:11:55;;;;;;;20.08;4.70;;;5.00;99.90;;;;;;5055917;28;20251;-68
2022/02/26 02:14:22;;;;;;;22.75;5.45;;;5.00;99.90;;;;;;5060809;28;20653;-68
2022/02/26 02:16:50;;;;;;;20.17;5.18;;;5.10;99.90;;;;;;5057393;28;20208;-67
2022/02/26 02:19:18;;;;;;;16.27;5.25;;;5.10;99.90;;;;;;5053424;28;20247;-70
2022/02/26 02:21:45;;;;;;;20.20;5.75;;;5.10;99.90;;;;;;5054815;28;20613;-68
2022/02/26 02:24:15;;;;;;;14.25;3.65;;;5.10;99.90;;;;;;5055430;28;20646;-68
2022/02/26 02:26:43;;;;;;;19.10;4.75;;;5.10;99.90;;;;;;5055110;28;20515;-67
2022/02/26 02:29:16;;;;;;;23.75;5.60;;;5.10;99.90;;;;;;5055195;28;20261;-66
2022/02/26 02:31:43;;;;;;;29.38;5.53;;;5.10;99.90;;;;;;5054141;28;20231;-68
2022/02/26 02:34:10;;;;;;;31.73;5.80;;;5.10;99.90;;;;;;5054964;28;20572;-70
2022/02/26 02:36:43;;;;;;;23.77;5.60;;;5.20;99.90;;;;;;5055292;28;20249;-67
2022/02/26 02:39:10;;;;;;;22.42;6.15;;;5.20;99.90;;;;;;5053578;28;20199;-67
2022/02/26 02:41:38;;;;;;;19.60;6.35;;;5.20;99.90;;;;;;5054614;28;20195;-67
2022/02/26 02:44:06;;;;;;;47.13;7.15;;;5.20;99.90;;;;;;5050553;28;20231;-69
2022/02/26 02:46:34;;;;;;;19.88;4.93;;;5.20;99.90;;;;;;5055250;28;20211;-68
2022/02/26 02:49:01;;;;;;;30.83;5.15;;;5.20;99.90;;;;;;5054866;28;20205;-67
2022/02/26 02:51:27;;;;;;;18.90;4.35;;;5.20;99.90;;;;;;5053988;28;20281;-68
2022/02/26 02:53:54;;;;;;;24.75;5.38;;;5.10;99.90;;;;;;5054607;28;20255;-69
2022/02/26 02:56:23;;;;;;;20.80;5.22;;;5.00;99.90;;;;;;5056676;28;20276;-69
2022/02/26 02:58:51;;;;;;;24.50;7.22;;;5.00;99.90;;;;;;5057394;28;20200;-68
2022/02/26 03:01:19;;;;;;;18.80;4.32;;;4.90;99.90;;;;;;5057281;28;20196;-67
2022/02/26 04:40:04;;;;;;;18.70;6.20;;;3.80;99.90;;;;;;4760883;29;20214;-86
2022/02/26 06:38:11;;;;;;;20.23;4.20;;;3.70;99.90;;;;;;4733439;30;20217;-85
2022/02/26 06:44:48;;;;;;;15.80;4.95;;;3.80;99.90;;;;;;4774440;29;20226;-86
2022/02/26 06:47:17;;;;;;;25.35;5.05;;;3.80;99.90;;;;;;4899741;29;20199;-85
2022/02/26 06:49:43;;;;;;;17.30;6.63;;;3.80;99.90;;;;;;4934074;28;20271;-86
2022/02/26 06:52:10;;;;;;;22.63;6.43;;;3.90;99.90;;;;;;4943760;29;20283;-86
2022/02/26 06:54:38;;;;;;;15.10;4.18;;;4.00;99.90;;;;;;4965923;28;20698;-87
2022/02/26 06:57:06;;;;;;;21.88;7.18;;;4.10;99.90;;;;;;4965934;29;20219;-86
2022/02/26 06:59:33;;;;;;;19.25;4.55;;;4.10;99.90;;;;;;4972962;28;20206;-87
2022/02/26 07:02:00;;;;;;;18.80;5.30;;;4.20;99.90;;;;;;4968097;28;20231;-85
2022/02/26 07:04:30;;;;;;;21.48;5.95;;;4.20;99.90;;;;;;4971600;28;20266;-86
2022/02/26 07:06:58;;;;;;;23.25;5.53;;;4.30;99.90;;;;;;4970699;28;20203;-87
2022/02/26 07:09:27;;;;;;;20.73;5.15;;;4.50;99.90;;;;;;4967729;28;20207;-87
2022/02/26 07:11:54;;;;;;;20.88;6.40;;;4.60;99.90;;;;;;4955917;28;20289;-88
2022/02/26 07:14:21;;;;;;;24.98;6.25;;;4.70;99.90;;;;;;4968743;28;20214;-87
2022/02/26 07:16:47;;;;;;;11.80;4.28;;;4.70;99.90;;;;;;4956213;28;20199;-88
2022/02/26 07:19:15;;;;;;;13.98;4.93;;;5.00;99.90;;;;;;4969235;28;20290;-87
2022/02/26 07:21:44;;;;;;;16.85;4.30;;;5.60;99.90;;;;;;4963219;28;20212;-87
2022/02/26 07:24:11;;;;;;;18.13;6.40;;;6.40;99.90;;;;;;4967790;28;20317;-87
2022/02/26 07:26:38;;;;;;;16.55;5.95;;;7.10;99.90;;;;;;4964174;29;20230;-87
2022/02/26 07:29:05;;;;;;;12.60;4.00;;;8.00;99.90;;;;;;4961508;29;20216;-87
2022/02/26 07:31:32;;;;;;;21.73;7.10;;;8.60;99.90;;;;;;4956391;28;20237;-87
2022/02/26 07:34:00;;;;;;;19.52;6.55;;;9.30;99.90;;;;;;4965246;29;20272;-87
2022/02/26 07:36:26;;;;;;;17.23;6.05;;;9.90;99.90;;;;;;4964996;29;20208;-86
2022/02/26 07:38:55;;;;;;;17.08;6.18;;;10.40;99.90;;;;;;4969608;28;20260;-86
2022/02/26 07:41:22;;;;;;;16.58;4.70;;;10.80;99.90;;;;;;4977219;28;20218;-87
2022/02/26 07:43:49;;;;;;;12.90;5.60;;;11.20;99.90;;;;;;4959945;28;20226;-86
2022/02/26 07:46:16;;;;;;;16.23;5.35;;;11.30;99.90;;;;;;4973524;28;20211;-86
2022/02/26 07:48:43;;;;;;;18.75;5.15;;;11.50;99.90;;;;;;4969772;28;20211;-88
2022/02/26 07:51:10;;;;;;;20.67;5.15;;;11.90;99.90;;;;;;4976224;28;20624;-87
2022/02/26 07:53:37;;;;;;;19.73;5.88;;;12.30;99.90;;;;;;4979246;28;20198;-87
2022/02/26 07:56:06;;;;;;;22.13;4.95;;;12.80;99.90;;;;;;4969568;28;20234;-87
2022/02/26 07:58:33;;;;;;;15.70;4.22;;;13.20;99.90;;;;;;4972371;28;20427;-87
2022/02/26 08:01:00;;;;;;;17.20;4.80;;;13.50;98.80;;;;;;4966339;28;20222;-87
2022/02/26 08:03:27;;;;;;;19.75;4.20;;;13.90;97.70;;;;;;4980127;28;20293;-89
2022/02/26 08:05:54;;;;;;;19.13;5.15;;;13.90;97.00;;;;;;4966116;28;20220;-84
2022/02/26 08:08:21;;;;;;;19.63;4.63;;;14.30;96.00;;;;;;4978841;28;20216;-85
2022/02/26 08:10:48;;;;;;;18.92;5.25;;;14.60;95.30;;;;;;4966228;28;20233;-85
2022/02/26 08:13:17;;;;;;;17.25;6.38;;;14.80;94.40;;;;;;4964805;29;20700;-83
2022/02/26 08:15:44;;;;;;;23.93;6.93;;;14.80;93.90;;;;;;4968138;28;20229;-84
2022/02/26 08:18:13;;;;;;;21.30;7.18;;;15.00;93.80;;;;;;4976731;28;20460;-83
2022/02/26 08:20:40;;;;;;;20.13;4.63;;;15.10;94.20;;;;;;4979610;28;20210;-83
2022/02/26 08:23:07;;;;;;;18.52;6.45;;;15.20;93.90;;;;;;4975092;28;20245;-83
2022/02/26 08:25:34;;;;;;;13.60;5.03;;;15.50;94.20;;;;;;4980846;28;20226;-82
2022/02/26 08:28:01;;;;;;;12.37;4.83;;;15.50;93.10;;;;;;4973077;28;20447;-84
2022/02/26 08:30:30;;;;;;;16.70;5.25;;;15.50;92.90;;;;;;4972987;28;20471;-86
2022/02/26 08:32:58;;;;;;;17.43;5.67;;;15.60;92.70;;;;;;4964970;28;20236;-85
2022/02/26 08:35:25;;;;;;;19.97;5.20;;;15.60;91.90;;;;;;4972590;28;20514;-84
2022/02/26 08:37:54;;;;;;;17.73;5.37;;;15.60;92.80;;;;;;4979402;28;20522;-84
2022/02/26 08:40:21;;;;;;;15.95;5.00;;;15.80;91.10;;;;;;4984024;28;21029;-82
2022/02/26 08:42:48;;;;;;;19.80;5.97;;;15.80;91.50;;;;;;4974805;28;20463;-85
2022/02/26 08:45:16;;;;;;;18.73;5.43;;;16.00;90.90;;;;;;4973298;28;20206;-83
2022/02/26 08:47:44;;;;;;;25.93;5.87;;;16.10;90.70;;;;;;4968147;28;20449;-84
2022/02/26 08:50:13;;;;;;;13.20;5.30;;;16.40;90.50;;;;;;4976160;28;20446;-84
2022/02/26 08:52:40;;;;;;;20.13;5.53;;;16.50;90.70;;;;;;4976910;28;20451;-85
2022/02/26 08:55:08;;;;;;;15.50;5.73;;;16.70;89.00;;;;;;4967461;28;20888;-85
2022/02/26 08:57:35;;;;;;;18.47;7.40;;;17.00;89.00;;;;;;4980270;28;20473;-86
2022/02/26 09:00:04;;;;;;;14.20;4.80;;;17.00;87.90;;;;;;4975300;28;20489;-86
2022/02/26 09:02:31;;;;;;;18.07;5.00;;;17.10;88.50;;;;;;4973333;28;20514;-85
2022/02/26 09:05:17;;;;;;;16.57;4.90;;;16.90;89.50;;;;;;5081758;22;20541;-82
2022/02/26 09:07:44;;;;;;;17.63;5.40;;;17.30;88.20;;;;;;5050588;28;20458;-83
2022/02/26 09:10:12;;;;;;;15.00;4.60;;;17.40;87.70;;;;;;5053726;28;20451;-83
2022/02/26 09:12:40;;;;;;;16.73;4.97;;;17.60;86.80;;;;;;5047296;28;21126;-79
2022/02/26 09:15:07;;;;;;;19.47;5.10;;;17.50;86.70;;;;;;5049777;28;20470;-81
2022/02/26 09:17:34;;;;;;;20.20;5.07;;;17.20;87.40;;;;;;5048066;28;20475;-85
2022/02/26 09:20:02;;;;;;;14.57;4.37;;;17.40;87.30;;;;;;5046118;28;20453;-82
2022/02/26 09:22:29;;;;;;;19.93;5.30;;;17.70;86.90;;;;;;5047739;28;20462;-83
2022/02/26 09:24:56;;;;;;;13.83;4.83;;;17.90;85.90;;;;;;5043252;28;20494;-79
2022/02/26 09:27:23;;;;;;;12.90;3.40;;;17.20;86.10;;;;;;5046379;28;20534;-79
2022/02/26 09:29:50;;;;;;;19.73;5.17;;;17.50;88.30;;;;;;5044028;28;20438;-78
2022/02/26 09:32:17;;;;;;;16.17;4.97;;;17.60;86.90;;;;;;5047128;28;20443;-78
2022/02/26 09:34:44;;;;;;;14.47;3.90;;;18.00;86.00;;;;;;5051797;28;20458;-78
2022/02/26 09:37:12;;;;;;;17.30;3.97;;;17.30;86.70;;;;;;5048330;28;20886;-78
2022/02/26 09:39:39;;;;;;;21.63;5.07;;;17.10;86.80;;;;;;5048750;28;20465;-78
2022/02/26 09:42:06;;;;;;;14.45;4.25;;;16.00;88.90;;;;;;5048681;28;20646;-76
2022/02/26 09:44:33;;;;;;;23.13;5.00;;;15.80;90.70;;;;;;5054908;28;20320;-77
2022/02/26 09:47:00;;;;;;;15.57;4.85;;;15.20;91.00;;;;;;5047295;28;20224;-80
2022/02/26 09:49:27;;;;;;;19.63;4.90;;;14.30;91.80;;;;;;5056500;28;20247;-78
2022/02/26 09:51:54;;;;;;;14.23;4.57;;;14.10;93.40;;;;;;5060851;28;20232;-78
2022/02/26 09:54:22;;;;;;;17.30;4.38;;;13.90;93.90;;;;;;5059372;28;20303;-76
2022/02/26 09:56:49;;;;;;;17.58;5.95;;;14.50;93.00;;;;;;5059982;28;20234;-78
2022/02/26 09:59:16;;;;;;;17.67;4.40;;;15.80;91.40;;;;;;5053586;28;20231;-79
2022/02/26 10:02:00;;;;;;;13.13;4.17;;;17.20;88.20;;;;;;5056211;28;20454;-79
2022/02/26 10:04:56;;;;;;;19.90;4.20;;;18.40;84.00;;;;;;5051846;28;20483;-81
2022/02/26 10:07:24;;;;;;;11.67;3.30;;;18.60;81.20;;;;;;5054902;28;20468;-82
2022/02/26 10:09:54;;;;;;;11.47;4.10;;;18.90;77.60;;;;;;5060259;28;20445;-82
2022/02/26 10:12:36;;;;;;;17.63;4.47;;;18.60;79.20;;;;;;5054189;28;20471;-81
2022/02/26 10:15:23;;;;;;;15.83;4.90;;;17.80;79.10;;;;;;5051853;28;20486;-82
2022/02/26 10:18:15;;;;;;;16.60;4.40;;;17.10;81.30;;;;;;5053023;28;20457;-84
2022/02/26 10:20:54;;;;;;;13.27;3.75;;;16.50;83.20;;;;;;5033851;28;20234;-83
2022/02/26 10:23:22;;;;;;;17.77;4.17;;;16.20;83.10;;;;;;5050305;28;20227;-82
2022/02/26 10:25:50;;;;;;;10.15;3.13;;;16.40;85.00;;;;;;5049312;28;20470;-81
2022/02/26 10:28:18;;;;;;;19.10;4.17;;;16.50;83.40;;;;;;5046829;28;20287;-80
2022/02/26 10:30:46;;;;;;;8.50;2.57;;;17.00;82.70;;;;;;5046708;28;20435;-82
2022/02/26 10:33:14;;;;;;;15.90;4.50;;;17.20;81.20;;;;;;5045494;28;20534;-82
2022/02/26 10:35:45;;;;;;;15.67;4.40;;;16.50;82.20;;;;;;5042954;28;20472;-80
2022/02/26 10:38:19;;;;;;;11.67;3.73;;;16.60;82.90;;;;;;5048304;28;20912;-81
2022/02/26 10:40:57;;;;;;;22.77;4.00;;;16.70;83.50;;;;;;5046677;28;21126;-83
2022/02/26 10:43:45;;;;;;;14.07;3.53;;;16.90;83.50;;;;;;5048033;28;20473;-84
2022/02/26 10:46:28;;;;;;;14.70;5.97;;;17.20;82.30;;;;;;5041369;28;20533;-82
2022/02/26 10:48:57;;;;;;;12.47;3.83;;;17.60;80.40;;;;;;5047876;28;20549;-85
2022/02/26 10:51:26;;;;;;;9.73;3.40;;;17.10;80.70;;;;;;5046808;28;20850;-84
2022/02/26 10:53:53;;;;;;;14.43;4.53;;;16.20;81.10;;;;;;5049109;28;20266;-85
2022/02/26 10:56:31;;;;;;;9.80;3.75;;;15.70;82.90;;;;;;5048167;28;20280;-82
2022/02/26 10:58:58;;;;;;;14.90;6.25;;;15.20;84.90;;;;;;5048197;28;20212;-82
2022/02/26 11:01:25;;;;;;;18.15;4.80;;;14.50;86.20;;;;;;5047012;28;20236;-85
2022/02/26 11:03:56;;;;;;;20.25;6.70;;;13.90;88.50;;;;;;5048239;28;20231;-84
2022/02/26 11:06:24;;;;;;;14.48;4.65;;;13.80;90.50;;;;;;5050100;28;20655;-85
2022/02/26 11:08:52;;;;;;;12.15;3.60;;;14.10;90.80;;;;;;5048028;28;20302;-83
2022/02/26 11:11:22;;;;;;;18.77;5.18;;;14.00;88.60;;;;;;5047028;28;20204;-80
2022/02/26 11:13:51;;;;;;;11.23;3.50;;;13.80;88.80;;;;;;5044852;28;20197;-83
2022/02/26 11:16:20;;;;;;;21.35;4.13;;;13.50;89.70;;;;;;5043783;28;20260;-81
2022/02/26 11:18:48;;;;;;;17.75;3.97;;;12.90;90.60;;;;;;5040942;28;20986;-83
2022/02/26 11:21:17;;;;;;;15.30;4.90;;;12.60;91.20;;;;;;5039138;28;20211;-81
2022/02/26 11:23:45;;;;;;;11.82;3.13;;;12.50;92.20;;;;;;5043604;28;20224;-81
2022/02/26 11:26:14;;;;;;;15.18;4.53;;;12.90;91.20;;;;;;5043401;28;20623;-81
2022/02/26 11:28:47;;;;;;;12.55;5.00;;;13.00;90.10;;;;;;5050396;28;20254;-82
2022/02/26 11:31:18;;;;;;;12.75;3.70;;;13.10;90.30;;;;;;5043791;28;20640;-81
2022/02/26 11:33:46;;;;;;;13.70;3.45;;;13.20;88.00;;;;;;5045754;28;20287;-80
2022/02/26 11:36:14;;;;;;;14.13;2.90;;;13.40;87.60;;;;;;5044433;28;20216;-84
2022/02/26 11:38:43;;;;;;;9.95;2.80;;;13.20;88.30;;;;;;5046476;28;20204;-82
2022/02/26 11:41:18;;;;;;;12.15;3.65;;;13.30;88.30;;;;;;5045725;28;20228;-81
2022/02/26 11:43:56;;;;;;;14.07;3.42;;;13.60;87.20;;;;;;5045825;28;20287;-80
2022/02/26 11:46:28;;;;;;;15.65;4.03;;;13.60;87.00;;;;;;5045723;28;20451;-86
2022/02/26 11:48:55;;;;;;;10.77;3.60;;;13.60;85.70;;;;;;5044204;28;20442;-81
2022/02/26 11:51:31;;;;;;;11.07;4.68;;;13.30;85.70;;;;;;5034014;28;20435;-80
2022/02/26 11:53:58;;;;;;;13.88;3.70;;;13.30;87.80;;;;;;5054637;28;20200;-82
2022/02/26 11:56:39;;;;;;;12.98;3.28;;;13.10;87.90;;;;;;5054091;28;20280;-81
2022/02/26 11:59:08;;;;;;;8.57;3.10;;;13.30;87.30;;;;;;5055490;28;20218;-79
2022/02/26 12:01:35;;;;;;;11.20;3.70;;;13.20;86.50;;;;;;5056646;28;20458;-77
2022/02/26 12:04:02;;;;;;;12.32;3.15;;;13.00;87.00;;;;;;5056611;28;20207;-77
2022/02/26 12:06:35;;;;;;;11.00;3.50;;;13.10;87.40;;;;;;5055889;28;20224;-76
2022/02/26 12:09:13;;;;;;;14.35;4.40;;;13.30;88.70;;;;;;5056390;28;20270;-77
2022/02/26 12:11:46;;;;;;;10.57;3.45;;;13.20;87.50;;;;;;5056318;28;20223;-76
2022/02/26 12:14:26;;;;;;;13.48;4.18;;;13.00;89.90;;;;;;5054623;28;20199;-76
2022/02/26 12:16:58;;;;;;;28.33;5.22;;;13.00;90.20;;;;;;5053964;28;20182;-78
2022/02/26 12:19:27;;;;;;;13.63;2.65;;;13.00;90.40;;;;;;5055419;28;20205;-78
2022/02/26 12:21:58;;;;;;;12.02;3.75;;;12.90;90.00;;;;;;5048818;28;20207;-81
2022/02/26 12:24:27;;;;;;;12.32;3.60;;;12.90;90.10;;;;;;5047807;28;20255;-82
2022/02/26 12:27:02;;;;;;;17.25;4.20;;;12.90;89.80;;;;;;5052283;28;20203;-80
2022/02/26 12:30:07;;;;;;;7.97;4.05;;;12.60;89.90;;;;;;5047143;28;20218;-79
2022/02/26 12:32:52;;;;;;;11.38;3.05;;;12.60;90.60;;;;;;4986213;28;20224;-81
2022/02/26 12:35:19;;;;;;;12.40;4.32;;;12.60;90.40;;;;;;5046418;28;20242;-80
2022/02/26 12:37:48;;;;;;;10.55;3.67;;;12.60;90.20;;;;;;5049043;28;20207;-82
2022/02/26 12:40:19;;;;;;;16.25;3.50;;;12.70;89.80;;;;;;5048089;28;20207;-82
2022/02/26 12:42:48;;;;;;;11.07;3.13;;;12.70;88.00;;;;;;5038347;28;20212;-82
2022/02/26 12:45:19;;;;;;;11.23;3.25;;;12.60;88.90;;;;;;5044579;28;20299;-81
2022/02/26 12:47:47;;;;;;;5.40;2.20;;;12.60;89.10;;;;;;5041170;28;20211;-82
2022/02/26 12:52:59;;;;;;;12.18;3.00;;;12.80;87.30;;;;;;5040366;28;21411;-79
2022/02/26 12:55:27;;;;;;;5.38;2.38;;;12.90;84.80;;;;;;5043903;28;20246;-83
2022/02/26 12:57:54;;;;;;;11.25;4.07;;;12.80;85.00;;;;;;5047563;28;20200;-81
2022/02/26 13:00:25;;;;;;;12.57;3.17;;;12.70;84.20;;;;;;5046608;28;20222;-82
2022/02/26 13:02:54;;;;;;;8.38;3.05;;;12.60;84.80;;;;;;5044878;28;20294;-82
2022/02/26 13:05:27;;;;;;;6.88;3.55;;;12.40;87.60;;;;;;5045806;28;20238;-82
2022/02/26 13:11:03;;;;;;;9.88;3.03;;;12.00;89.30;;;;;;5033427;28;20174;-80
2022/02/26 13:13:30;;;;;;;12.98;2.90;;;12.00;86.60;;;;;;5055043;28;20311;-78
2022/02/26 13:16:02;;;;;;;5.57;2.60;;;11.90;86.90;;;;;;5056519;28;20230;-77
2022/02/26 13:18:35;;;;;;;10.80;2.67;;;11.90;85.60;;;;;;5055629;28;20204;-78
2022/02/26 13:21:02;;;;;;;13.15;3.50;;;11.80;86.10;;;;;;5055632;28;20215;-79
2022/02/26 13:23:31;;;;;;;13.77;3.15;;;11.80;85.70;;;;;;5055762;28;20238;-78
2022/02/26 13:25:58;;;;;;;10.38;3.42;;;11.80;85.60;;;;;;5055956;28;20242;-79
2022/02/26 13:28:25;;;;;;;22.30;5.32;;;11.80;85.80;;;;;;5056168;28;20259;-79
2022/02/26 13:30:54;;;;;;;12.52;4.55;;;11.70;85.90;;;;;;5061235;28;20211;-79
2022/02/26 13:33:23;;;;;;;7.15;3.67;;;11.50;87.10;;;;;;5055423;28;20275;-79
2022/02/26 13:35:50;;;;;;;10.98;3.33;;;11.50;88.30;;;;;;5055865;28;20575;-80
2022/02/26 13:38:18;;;;;;;9.00;2.90;;;11.40;88.00;;;;;;5055937;28;20181;-78
2022/02/26 13:40:48;;;;;;;11.27;3.53;;;11.40;87.40;;;;;;5063983;28;20193;-79
2022/02/26 13:43:15;;;;;;;11.10;2.67;;;11.50;86.30;;;;;;5052045;28;20210;-78
2022/02/26 13:45:42;;;;;;;8.63;2.28;;;11.50;87.40;;;;;;5054898;28;20252;-79
2022/02/26 13:48:17;;;;;;;6.10;2.88;;;11.40;87.10;;;;;;5042983;28;20189;-82
2022/02/26 13:50:49;;;;;;;6.57;2.03;;;11.40;87.00;;;;;;5034394;28;20197;-85
2022/02/26 13:53:19;;;;;;;9.60;2.58;;;11.20;86.90;;;;;;5060924;28;20200;-85
2022/02/26 13:55:50;;;;;;;9.10;2.03;;;11.10;88.50;;;;;;5049874;28;20247;-82
2022/02/26 13:58:24;;;;;;;11.07;2.45;;;11.30;86.20;;;;;;5048142;28;20227;-82
2022/02/26 14:01:04;;;;;;;10.63;2.40;;;11.10;84.80;;;;;;5054730;28;20255;-80
2022/02/26 14:03:31;;;;;;;7.38;2.10;;;11.10;85.40;;;;;;5056756;28;20228;-82
2022/02/26 14:06:05;;;;;;;15.10;5.47;;;11.20;85.70;;;;;;5056792;28;20294;-78
2022/02/26 14:08:32;;;;;;;12.10;6.13;;;11.20;87.70;;;;;;5057993;28;20186;-80
2022/02/26 14:11:01;;;;;;;13.25;3.13;;;11.30;87.20;;;;;;5056704;28;20235;-78
2022/02/26 14:13:28;;;;;;;6.35;2.25;;;11.40;87.40;;;;;;5056493;28;20206;-80
2022/02/26 14:15:56;;;;;;;12.75;2.60;;;11.40;84.40;;;;;;5051783;28;20221;-83
2022/02/26 14:18:24;;;;;;;10.07;2.15;;;11.30;83.10;;;;;;5051038;28;20208;-84
2022/02/26 14:20:51;;;;;;;5.57;2.30;;;10.90;84.40;;;;;;5046105;28;20277;-77
2022/02/26 14:23:20;;;;;;;11.38;2.55;;;10.80;84.10;;;;;;5058546;28;20188;-79
2022/02/26 14:25:48;;;;;;;7.00;2.97;;;10.60;83.60;;;;;;5058648;28;20224;-80
2022/02/26 14:28:17;;;;;;;10.15;2.70;;;10.60;84.70;;;;;;5049181;28;20186;-77
2022/02/26 14:30:45;;;;;;;5.82;2.25;;;10.60;84.30;;;;;;5043254;28;20296;-82
2022/02/26 14:33:12;;;;;;;6.68;1.92;;;10.70;84.40;;;;;;5048066;28;20270;-84
2022/02/26 14:35:40;;;;;;;4.50;2.00;;;10.70;85.00;;;;;;5049658;28;20238;-81
2022/02/26 14:38:08;;;;;;;5.85;2.42;;;10.70;85.10;;;;;;5045747;28;20289;-82
2022/02/26 14:40:38;;;;;;;8.40;2.97;;;10.80;84.30;;;;;;5040844;28;20198;-77
2022/02/26 14:43:05;;;;;;;7.55;2.17;;;11.00;84.20;;;;;;5065147;28;20201;-80
2022/02/26 14:45:33;;;;;;;7.18;2.50;;;10.80;85.40;;;;;;5050156;28;20224;-81
2022/02/26 14:48:00;;;;;;;14.20;6.90;;;10.90;84.00;;;;;;5051669;28;20200;-85
2022/02/26 14:50:27;;;;;;;7.68;3.58;;;11.00;86.90;;;;;;5052768;28;20194;-83
2022/02/26 14:52:54;;;;;;;5.50;1.42;;;11.00;85.20;;;;;;5053366;28;20196;-83
2022/02/26 14:55:22;;;;;;;7.57;3.03;;;11.00;82.40;;;;;;5050868;28;20222;-79
2022/02/26 14:57:52;;;;;;;5.47;1.90;;;11.00;83.70;;;;;;5048068;28;20239;-83
2022/02/26 15:00:21;;;;;;;12.23;3.03;;;11.10;83.50;;;;;;5048691;28;20265;-83
2022/02/26 15:02:48;;;;;;;2.60;1.60;;;11.10;83.30;;;;;;5046685;28;20264;-81
2022/02/26 15:05:15;;;;;;;7.68;3.85;;;11.10;81.20;;;;;;5073705;22;20281;-84
2022/02/26 15:07:42;;;;;;;11.63;2.58;;;11.10;80.20;;;;;;5065057;28;20224;-84
2022/02/26 15:10:11;;;;;;;7.53;2.20;;;11.20;81.00;;;;;;5066214;28;20243;-85
2022/02/26 15:12:38;;;;;;;6.57;2.05;;;11.20;82.90;;;;;;5064553;28;20258;-85
2022/02/26 15:15:10;;;;;;;5.60;2.90;;;11.20;83.10;;;;;;5069718;28;20313;-85
2022/02/26 15:17:38;;;;;;;6.03;1.90;;;11.20;84.30;;;;;;5072870;28;20218;-85
2022/02/26 15:20:07;;;;;;;5.63;1.98;;;11.30;84.60;;;;;;5074544;28;20206;-85
2022/02/26 15:22:34;;;;;;;8.10;3.33;;;11.30;85.30;;;;;;5066441;28;20219;-86
2022/02/26 15:25:01;;;;;;;14.10;2.70;;;11.40;85.40;;;;;;5078823;28;20232;-84
2022/02/26 15:27:29;;;;;;;8.77;2.50;;;11.30;85.40;;;;;;5082879;28;20258;-84
2022/02/26 15:29:56;;;;;;;6.90;2.38;;;11.20;86.30;;;;;;5078845;28;20203;-85
2022/02/26 15:32:25;;;;;;;8.93;2.42;;;11.10;86.70;;;;;;5068197;28;20289;-85
2022/02/26 15:34:52;;;;;;;9.40;2.30;;;11.20;86.80;;;;;;5063170;28;20248;-84
2022/02/26 15:37:19;;;;;;;6.78;2.13;;;11.20;85.80;;;;;;5080287;28;20196;-84
2022/02/26 15:39:46;;;;;;;6.90;2.90;;;11.00;86.10;;;;;;5089380;28;20190;-84
2022/02/26 15:42:13;;;;;;;10.35;1.83;;;11.10;85.70;;;;;;5092038;28;20205;-84
2022/02/26 15:44:40;;;;;;;7.72;2.85;;;11.00;85.20;;;;;;5091498;28;20262;-85
2022/02/26 15:47:07;;;;;;;12.93;2.42;;;10.90;85.60;;;;;;5092051;28;20277;-85
2022/02/26 15:49:36;;;;;;;10.55;2.55;;;10.80;85.90;;;;;;5092779;28;20205;-85
2022/02/26 15:52:03;;;;;;;9.68;2.13;;;10.80;86.80;;;;;;5092159;28;20200;-85
2022/02/26 15:54:30;;;;;;;6.72;2.45;;;10.80;87.30;;;;;;5092590;28;20226;-84
2022/02/26 15:56:57;;;;;;;4.05;2.00;;;10.80;86.60;;;;;;5093739;28;20234;-84
2022/02/26 15:59:24;;;;;;;10.23;2.30;;;10.70;86.30;;;;;;5093704;28;20212;-85
2022/02/26 16:01:50;;;;;;;11.55;2.40;;;10.70;85.60;;;;;;5092228;28;20229;-84
2022/02/26 16:04:17;;;;;;;13.93;2.63;;;10.70;85.60;;;;;;5092089;28;20242;-85
2022/02/26 16:06:46;;;;;;;5.78;1.20;;;10.60;86.40;;;;;;5089294;28;20294;-82
2022/02/26 16:09:13;;;;;;;4.10;1.88;;;10.60;85.70;;;;;;5083804;28;20636;-85
2022/02/26 16:11:41;;;;;;;3.65;1.73;;;10.50;85.70;;;;;;5082400;28;20207;-85
2022/02/26 16:14:08;;;;;;;5.60;1.63;;;10.30;86.20;;;;;;5084838;28;20557;-85
2022/02/26 16:16:36;;;;;;;6.03;1.90;;;10.30;86.80;;;;;;5085893;28;20225;-84
2022/02/26 16:19:03;;;;;;;6.10;1.80;;;10.30;86.70;;;;;;5086898;28;20202;-85
2022/02/26 16:21:30;;;;;;;8.23;1.30;;;10.20;86.70;;;;;;5085254;28;20250;-85
2022/02/26 16:23:58;;;;;;;27.67;3.60;;;10.10;87.20;;;;;;5081026;28;20254;-85
2022/02/26 16:26:25;;;;;;;6.43;1.90;;;10.00;87.70;;;;;;5066051;28;20227;-84
2022/02/26 16:28:52;;;;;;;4.82;1.63;;;10.10;88.30;;;;;;5075665;28;20196;-84
2022/02/26 16:31:19;;;;;;;5.53;1.70;;;9.90;89.40;;;;;;5074727;28;20188;-85
2022/02/26 16:33:46;;;;;;;7.97;2.13;;;9.90;89.50;;;;;;5062995;28;20224;-86